ホニアラ の空港の天気 - METARとTAF

ホニアラ国際空港 ( AGGH / HIR ) - ソロモン諸島 ガダルカナル島ホニアラ
飛行場実況気象(Metar)
観測時間12/14 17:00 SBT (12/14 06:00 UTC)
風向・風速北北東 3m/s
視程10km以上
天気現象煙霧
少しの雲 雲底高度 580m
全天の4割程度の雲 雲底高度 1070m
全天の8割程度の雲 雲底高度 9140m
気温32℃
湿度71%
気圧1003hPa
METARAGGH 140600Z 02006KT 9999 HZ FEW019 SCT035 BKN300 32/26 Q1003
過去の天気等 Google飛行場航空写真 Wunderground天気予報

過去48時間のMETAR

飛行場予報(TAF)
発表時間: 12/14 16:15 SBT (12/14 05:15 UTC)
予報対象時間: 14日17時 SBT ~ 15日17時 SBT
風向・風速北 4m/s
視程10km以上
少しの雲 雲底高度 550m
TAF AGGH 140515Z 1406/1506 36007KT 9999 FEW018
PROB30 INTER 1406/1411 5000 TSSH BKN018 FEW019CB T 30 27 26 25 Q 1003 1005 1006 1004